TAF Text Data
IDs:
Format:
Raw Decoded Include METAR

Data at: 0459 UTC 31 May 2023

RJBT 310400Z 01006KT 310V060 9999 FEW010 SCT/// 20/11 Q1013